Time;durP1;ratioP1;P1;durP2;ratioP2;P2;SDS_P1;SDS_P2;PMS_P1;PMS_P2;Temp;Humidity;BMP_temperature;BMP_pressure;BME280_temperature;BME280_humidity;BME280_pressure;Samples;Min_cycle;Max_cycle;Signal;HPM_P1;HPM_P2
2023/02/28 00:00:28;;;;;;;2.83;1.63;;;21.70;55.10;;;;;;4956277;29;20956;-84
2023/02/28 00:02:54;;;;;;;2.17;1.73;;;21.60;55.00;;;;;;4956137;29;20869;-83
2023/02/28 00:05:25;;;;;;;1.60;1.27;;;21.60;55.00;;;;;;4955995;29;20450;-84
2023/02/28 00:07:52;;;;;;;1.73;1.63;;;21.60;55.00;;;;;;4956347;29;20485;-84
2023/02/28 00:10:20;;;;;;;2.00;1.90;;;21.60;55.00;;;;;;4956191;29;20469;-84
2023/02/28 00:12:47;;;;;;;1.77;1.63;;;21.60;55.00;;;;;;4971229;28;20442;-83
2023/02/28 00:15:14;;;;;;;1.47;1.37;;;21.60;55.00;;;;;;4955194;29;20442;-84
2023/02/28 00:17:41;;;;;;;2.33;1.60;;;21.60;55.50;;;;;;4955866;29;20956;-84
2023/02/28 00:20:09;;;;;;;1.50;1.37;;;21.60;55.00;;;;;;4955856;28;20907;-83
2023/02/28 00:22:39;;;;;;;1.30;1.20;;;21.60;55.00;;;;;;4955177;29;20477;-83
2023/02/28 00:25:07;;;;;;;2.13;1.90;;;21.60;55.00;;;;;;4955842;28;20446;-83
2023/02/28 00:27:35;;;;;;;1.90;1.80;;;21.50;54.90;;;;;;4955502;29;20482;-83
2023/02/28 00:30:02;;;;;;;3.03;1.90;;;21.50;54.80;;;;;;4955950;29;20498;-84
2023/02/28 00:32:29;;;;;;;1.47;1.37;;;21.50;54.90;;;;;;4955310;29;20452;-84
2023/02/28 00:34:56;;;;;;;1.70;1.40;;;21.50;54.90;;;;;;4955761;29;20808;-84
2023/02/28 00:37:23;;;;;;;2.00;1.67;;;21.50;54.80;;;;;;4955736;29;20529;-88
2023/02/28 00:39:51;;;;;;;1.70;1.60;;;21.50;54.90;;;;;;4955385;29;20497;-83
2023/02/28 00:42:18;;;;;;;1.40;1.30;;;21.50;55.40;;;;;;4955813;29;20453;-84
2023/02/28 00:44:45;;;;;;;1.87;1.77;;;21.50;54.80;;;;;;4955802;29;20449;-90
2023/02/28 00:47:11;;;;;;;2.10;1.43;;;21.50;54.80;;;;;;4955792;29;20597;-83
2023/02/28 00:49:38;;;;;;;1.80;1.70;;;21.50;54.80;;;;;;4955796;29;20472;-84
2023/02/28 00:52:05;;;;;;;1.57;1.47;;;21.50;54.90;;;;;;4955798;29;20945;-82
2023/02/28 00:54:32;;;;;;;1.90;1.70;;;21.50;54.80;;;;;;4955270;29;20967;-83
2023/02/28 00:57:00;;;;;;;1.70;1.60;;;21.50;54.80;;;;;;4955740;29;20465;-85
2023/02/28 00:59:27;;;;;;;1.67;1.53;;;21.40;54.70;;;;;;4955750;29;20446;-86
2023/02/28 01:01:54;;;;;;;1.50;1.40;;;21.40;54.70;;;;;;4954875;29;20788;-83
2023/02/28 01:04:20;;;;;;;1.60;1.50;;;21.40;54.70;;;;;;4955187;29;20933;-84
2023/02/28 01:06:47;;;;;;;1.70;1.60;;;21.40;54.60;;;;;;4954891;29;20474;-84
2023/02/28 01:09:14;;;;;;;1.97;1.50;;;21.40;54.70;;;;;;4955407;29;20983;-83
2023/02/28 01:11:43;;;;;;;1.77;1.67;;;21.40;54.70;;;;;;4955665;28;20446;-90
2023/02/28 01:14:13;;;;;;;1.87;1.67;;;21.40;54.70;;;;;;4955427;29;20790;-83
2023/02/28 01:16:40;;;;;;;1.73;1.63;;;21.40;54.70;;;;;;4955678;29;20811;-85
2023/02/28 01:19:07;;;;;;;1.50;1.40;;;21.30;54.60;;;;;;4963501;28;20472;-84
2023/02/28 01:21:34;;;;;;;1.73;1.60;;;21.40;54.70;;;;;;4974527;28;20438;-86
2023/02/28 01:24:02;;;;;;;1.60;1.50;;;21.40;54.60;;;;;;4974660;28;20437;-85
2023/02/28 01:26:28;;;;;;;2.20;2.00;;;21.30;54.50;;;;;;4974809;28;20492;-86
2023/02/28 01:28:57;;;;;;;1.83;1.73;;;21.30;54.60;;;;;;4974869;28;20451;-85
2023/02/28 01:31:26;;;;;;;1.63;1.53;;;21.30;54.50;;;;;;4975489;28;20445;-91
2023/02/28 01:33:52;;;;;;;2.43;1.70;;;21.30;54.50;;;;;;4973790;28;20444;-85
2023/02/28 01:36:21;;;;;;;1.83;1.63;;;21.30;54.80;;;;;;4976762;28;20455;-82
2023/02/28 01:38:49;;;;;;;1.67;1.57;;;21.30;54.50;;;;;;4998889;28;20424;-85
2023/02/28 01:41:19;;;;;;;2.37;1.83;;;21.30;54.50;;;;;;5000287;28;20815;-85
2023/02/28 01:44:03;;;;;;;2.07;1.50;;;21.30;54.50;;;;;;4977898;28;20460;-85
2023/02/28 01:46:32;;;;;;;1.60;1.50;;;21.30;54.50;;;;;;4977609;28;20476;-85
2023/02/28 01:49:06;;;;;;;1.53;1.40;;;21.30;54.50;;;;;;4977778;28;20453;-85
2023/02/28 01:51:38;;;;;;;1.70;1.60;;;21.30;54.60;;;;;;4977654;28;20445;-85
2023/02/28 01:54:13;;;;;;;1.60;1.43;;;21.30;54.50;;;;;;4977584;28;20448;-85
2023/02/28 01:56:44;;;;;;;1.40;1.20;;;21.30;54.60;;;;;;4977638;28;20454;-85
2023/02/28 01:59:13;;;;;;;1.47;1.37;;;21.20;54.40;;;;;;4977646;28;20437;-85
2023/02/28 02:01:41;;;;;;;2.13;1.83;;;21.20;54.50;;;;;;4977424;28;20441;-85
2023/02/28 02:04:08;;;;;;;1.73;1.60;;;21.20;54.40;;;;;;4976922;28;20438;-85
2023/02/28 02:06:39;;;;;;;1.50;1.40;;;21.20;54.40;;;;;;4976996;28;20479;-86
2023/02/28 02:09:06;;;;;;;1.70;1.60;;;21.20;54.40;;;;;;4977054;28;20468;-84
2023/02/28 02:11:33;;;;;;;1.70;1.50;;;21.20;54.30;;;;;;4977512;28;20446;-92
2023/02/28 02:14:15;;;;;;;1.70;1.50;;;21.20;54.40;;;;;;4976974;28;20440;-86
2023/02/28 02:16:56;;;;;;;1.67;1.30;;;21.20;54.30;;;;;;4977393;28;20468;-85
2023/02/28 02:19:54;;;;;;;1.63;1.53;;;21.20;54.30;;;;;;4976842;28;21006;-93
2023/02/28 02:22:49;;;;;;;2.10;1.80;;;21.20;54.40;;;;;;4977068;28;20437;-86
2023/02/28 02:25:26;;;;;;;2.30;1.57;;;21.20;54.40;;;;;;4965282;28;20460;-85
2023/02/28 02:28:13;;;;;;;1.80;1.40;;;21.20;54.30;;;;;;4976937;28;20489;-85
2023/02/28 02:30:55;;;;;;;1.80;1.70;;;21.30;54.40;;;;;;4977608;28;20451;-85
2023/02/28 02:33:44;;;;;;;1.70;1.60;;;21.20;54.30;;;;;;4977190;28;20445;-85
2023/02/28 02:36:19;;;;;;;2.50;1.77;;;21.10;54.30;;;;;;4976570;28;20445;-83
2023/02/28 02:38:50;;;;;;;1.90;1.67;;;21.10;54.20;;;;;;4976545;28;20456;-83
2023/02/28 02:41:24;;;;;;;2.80;1.70;;;21.20;54.30;;;;;;4977410;28;20477;-90
2023/02/28 02:43:54;;;;;;;2.60;1.40;;;21.10;54.20;;;;;;4976571;28;20447;-84
2023/02/28 02:46:24;;;;;;;3.37;1.47;;;21.10;54.20;;;;;;4976924;28;20442;-83
2023/02/28 02:48:53;;;;;;;1.43;1.33;;;21.10;54.20;;;;;;4976563;28;20449;-85
2023/02/28 02:51:24;;;;;;;1.97;1.40;;;21.10;54.20;;;;;;4976577;28;20445;-84
2023/02/28 02:53:55;;;;;;;1.93;1.60;;;21.10;54.20;;;;;;4975936;28;20472;-83
2023/02/28 02:56:27;;;;;;;1.30;1.20;;;21.10;54.10;;;;;;4976546;28;20464;-85
2023/02/28 02:58:59;;;;;;;2.27;1.50;;;21.10;54.20;;;;;;4976673;28;20448;-86
2023/02/28 03:01:28;;;;;;;1.50;1.40;;;21.10;54.20;;;;;;4976713;28;20451;-86
2023/02/28 03:03:57;;;;;;;1.53;1.33;;;21.10;54.20;;;;;;4976256;28;20951;-92
2023/02/28 03:06:26;;;;;;;1.33;1.20;;;21.10;54.20;;;;;;4976822;28;20465;-85
2023/02/28 03:08:53;;;;;;;1.30;1.20;;;21.10;54.10;;;;;;4976774;28;20542;-85
2023/02/28 03:11:20;;;;;;;1.90;1.37;;;21.10;54.20;;;;;;4976972;28;20444;-94
2023/02/28 03:14:02;;;;;;;1.50;1.37;;;21.10;54.20;;;;;;4976361;28;20834;-86
2023/02/28 03:16:57;;;;;;;1.40;1.20;;;21.00;54.10;;;;;;4976582;28;20450;-85
2023/02/28 03:19:47;;;;;;;2.03;1.37;;;21.00;54.10;;;;;;4976263;28;20469;-86
2023/02/28 03:22:36;;;;;;;4.80;1.40;;;21.00;54.00;;;;;;4976501;28;20468;-86
2023/02/28 03:25:08;;;;;;;1.50;1.40;;;21.00;54.10;;;;;;4976445;28;20799;-92
2023/02/28 03:27:42;;;;;;;1.37;1.27;;;21.00;54.10;;;;;;4975873;28;20530;-85
2023/02/28 03:30:17;;;;;;;1.40;1.30;;;21.10;54.20;;;;;;4976306;28;20441;-85
2023/02/28 03:32:52;;;;;;;1.53;1.30;;;21.00;54.10;;;;;;4976361;28;20446;-86
2023/02/28 03:35:22;;;;;;;1.67;1.50;;;21.00;54.10;;;;;;4976652;28;20444;-85
2023/02/28 03:37:56;;;;;;;1.50;1.40;;;21.00;54.10;;;;;;4976504;28;20449;-85
2023/02/28 03:40:26;;;;;;;1.73;1.53;;;21.00;54.10;;;;;;4976631;28;20824;-85
2023/02/28 03:42:58;;;;;;;1.63;1.53;;;21.00;54.10;;;;;;4976180;28;20461;-85
2023/02/28 03:45:29;;;;;;;1.33;1.23;;;21.00;54.10;;;;;;4976063;28;20783;-85
2023/02/28 03:48:01;;;;;;;1.43;1.33;;;20.90;54.00;;;;;;4975933;28;20488;-85
2023/02/28 03:50:35;;;;;;;1.53;1.37;;;20.90;54.00;;;;;;4976504;28;20456;-85
2023/02/28 03:53:08;;;;;;;1.30;1.20;;;20.90;54.00;;;;;;4976246;28;20457;-85
2023/02/28 03:55:39;;;;;;;1.47;1.37;;;20.90;54.00;;;;;;4976325;28;20821;-87
2023/02/28 03:58:13;;;;;;;1.40;1.30;;;20.90;54.00;;;;;;4976468;28;20453;-85
2023/02/28 04:00:45;;;;;;;1.93;1.47;;;20.90;54.00;;;;;;4975938;28;20441;-85
2023/02/28 04:03:12;;;;;;;1.80;1.37;;;20.90;54.00;;;;;;4976318;28;20791;-85
2023/02/28 04:05:51;;;;;;;1.70;1.50;;;20.90;53.90;;;;;;4976076;28;20451;-85
2023/02/28 04:08:19;;;;;;;2.23;1.40;;;20.90;54.00;;;;;;4976395;28;20485;-93
2023/02/28 04:10:52;;;;;;;1.70;1.50;;;20.90;53.90;;;;;;4976626;28;20465;-84
2023/02/28 04:13:18;;;;;;;1.73;1.63;;;20.90;54.00;;;;;;4978223;28;20445;-89
2023/02/28 04:15:45;;;;;;;1.70;1.53;;;20.90;54.00;;;;;;4994278;28;20429;-85
2023/02/28 04:18:12;;;;;;;1.50;1.37;;;20.90;54.00;;;;;;4996901;28;20445;-85
2023/02/28 04:20:38;;;;;;;1.40;1.30;;;21.00;54.00;;;;;;4975667;28;20437;-85
2023/02/28 04:23:05;;;;;;;1.50;1.40;;;20.80;53.90;;;;;;4986857;28;20444;-85
2023/02/28 04:25:33;;;;;;;1.40;1.30;;;20.80;53.90;;;;;;4993622;28;20441;-85
2023/02/28 04:28:00;;;;;;;1.50;1.40;;;20.80;53.90;;;;;;4994295;28;20510;-84
2023/02/28 04:30:27;;;;;;;1.83;1.50;;;20.80;53.90;;;;;;4984013;28;20445;-86
2023/02/28 04:32:53;;;;;;;1.50;1.30;;;20.80;53.90;;;;;;4976875;28;20539;-93
2023/02/28 04:35:20;;;;;;;1.50;1.40;;;20.80;53.90;;;;;;4976283;28;20445;-85
2023/02/28 04:37:47;;;;;;;1.60;1.50;;;20.80;53.90;;;;;;4974566;28;20941;-85
2023/02/28 04:40:14;;;;;;;1.43;1.20;;;20.80;53.90;;;;;;4974708;28;20533;-85
2023/02/28 04:42:42;;;;;;;2.27;1.20;;;20.90;53.90;;;;;;4974703;28;20448;-85
2023/02/28 04:45:10;;;;;;;1.90;1.17;;;20.80;53.90;;;;;;4974802;28;20441;-84
2023/02/28 04:47:37;;;;;;;1.30;1.20;;;20.80;53.90;;;;;;4974430;28;20523;-87
2023/02/28 04:50:05;;;;;;;1.87;1.30;;;20.80;53.80;;;;;;4974976;28;20441;-85
2023/02/28 04:52:31;;;;;;;1.57;1.47;;;20.80;53.90;;;;;;4974723;28;20445;-85
2023/02/28 04:54:58;;;;;;;1.50;1.33;;;20.80;53.80;;;;;;4972067;28;20469;-87
2023/02/28 04:57:25;;;;;;;1.30;1.10;;;20.80;53.80;;;;;;4956969;28;20481;-86
2023/02/28 04:59:53;;;;;;;2.13;1.23;;;20.80;53.90;;;;;;4974368;28;20528;-85
2023/02/28 05:02:20;;;;;;;1.40;1.30;;;20.80;53.90;;;;;;4974084;28;20450;-85
2023/02/28 05:04:47;;;;;;;1.80;1.43;;;20.70;53.70;;;;;;4973817;28;20445;-89
2023/02/28 05:07:14;;;;;;;1.47;1.20;;;20.70;53.70;;;;;;4974993;28;20932;-91
2023/02/28 05:09:41;;;;;;;1.30;1.20;;;20.70;53.80;;;;;;4974049;28;20472;-85
2023/02/28 05:12:09;;;;;;;1.50;1.40;;;20.70;53.70;;;;;;4976395;28;20450;-85
2023/02/28 05:14:36;;;;;;;1.40;1.30;;;20.70;53.70;;;;;;4978671;28;20441;-84
2023/02/28 05:17:04;;;;;;;1.40;1.10;;;20.70;53.80;;;;;;4979068;28;20788;-85
2023/02/28 05:19:31;;;;;;;1.73;1.33;;;20.70;53.70;;;;;;4966454;28;20529;-85
2023/02/28 05:21:58;;;;;;;1.60;1.10;;;20.70;53.70;;;;;;4959285;29;20541;-85
2023/02/28 05:24:25;;;;;;;1.67;1.13;;;20.70;54.10;;;;;;4959270;29;20587;-86
2023/02/28 05:26:54;;;;;;;2.30;1.40;;;20.70;53.90;;;;;;4959100;29;20452;-85
2023/02/28 05:29:21;;;;;;;1.30;0.93;;;20.70;53.90;;;;;;4958875;29;20485;-86
2023/02/28 05:31:48;;;;;;;1.53;1.30;;;20.70;53.70;;;;;;4958970;29;20439;-86
2023/02/28 05:34:19;;;;;;;2.00;1.50;;;20.80;53.90;;;;;;4958526;29;20442;-86
2023/02/28 05:36:45;;;;;;;1.17;0.97;;;20.70;53.90;;;;;;4959056;29;20450;-87
2023/02/28 05:39:13;;;;;;;1.60;1.50;;;20.80;54.00;;;;;;4959221;29;20468;-87
2023/02/28 05:41:43;;;;;;;2.07;1.10;;;20.80;53.90;;;;;;4959008;28;20500;-87
2023/02/28 05:44:10;;;;;;;1.50;1.00;;;20.70;53.90;;;;;;4959686;29;20514;-86
2023/02/28 05:46:38;;;;;;;2.27;1.07;;;20.90;54.20;;;;;;4961414;29;20456;-96
2023/02/28 05:49:05;;;;;;;1.20;1.00;;;20.80;54.40;;;;;;4964757;29;20493;-96
2023/02/28 05:51:34;;;;;;;2.80;1.43;;;20.80;54.10;;;;;;4963931;29;20460;-96
2023/02/28 05:54:01;;;;;;;1.37;1.10;;;20.80;54.00;;;;;;4963251;28;20473;-96
2023/02/28 05:56:28;;;;;;;1.50;1.10;;;20.80;54.10;;;;;;4964056;29;20852;-96
2023/02/28 05:58:54;;;;;;;1.73;1.20;;;20.80;54.10;;;;;;4962588;29;20450;-96
2023/02/28 06:01:32;;;;;;;2.17;1.10;;;20.80;54.30;;;;;;4964048;29;20448;-96
2023/02/28 06:03:59;;;;;;;1.60;1.27;;;20.80;54.30;;;;;;4960794;29;20435;-96
2023/02/28 06:06:26;;;;;;;1.70;1.10;;;20.70;54.00;;;;;;4958785;29;20445;-89
2023/02/28 06:08:54;;;;;;;1.40;1.17;;;20.70;54.00;;;;;;4958070;29;20592;-86
2023/02/28 06:11:21;;;;;;;3.50;1.60;;;20.70;54.00;;;;;;4959076;29;20446;-87
2023/02/28 06:13:48;;;;;;;3.00;1.33;;;20.70;54.40;;;;;;4958947;29;20441;-87
2023/02/28 06:16:15;;;;;;;3.57;1.33;;;20.70;54.10;;;;;;4958810;29;20926;-86
2023/02/28 06:18:41;;;;;;;1.60;1.40;;;20.70;54.10;;;;;;4958441;28;20483;-86
2023/02/28 06:21:08;;;;;;;1.93;1.37;;;20.70;54.20;;;;;;4958310;29;20446;-86
2023/02/28 06:23:35;;;;;;;5.47;1.50;;;20.60;54.20;;;;;;4957274;28;20487;-90
2023/02/28 06:26:03;;;;;;;1.93;1.20;;;20.60;54.10;;;;;;4957716;29;20525;-86
2023/02/28 06:28:30;;;;;;;1.40;1.13;;;20.60;54.20;;;;;;4960880;29;20522;-86
2023/02/28 06:30:57;;;;;;;3.77;1.63;;;20.60;54.50;;;;;;4958857;29;20453;-87
2023/02/28 06:33:25;;;;;;;1.50;1.40;;;20.60;53.90;;;;;;4958407;29;20815;-87
2023/02/28 06:35:52;;;;;;;5.47;1.67;;;20.80;54.10;;;;;;4957749;29;20801;-88
2023/02/28 06:38:19;;;;;;;4.80;1.40;;;20.60;53.90;;;;;;4958129;29;20445;-87
2023/02/28 06:40:53;;;;;;;3.00;1.30;;;20.50;53.90;;;;;;4957973;29;20434;-87
2023/02/28 06:43:21;;;;;;;1.77;1.27;;;20.70;54.00;;;;;;4957712;29;20438;-86
2023/02/28 06:45:48;;;;;;;2.30;1.10;;;20.50;53.70;;;;;;4957740;29;20456;-86
2023/02/28 06:48:15;;;;;;;3.37;2.10;;;20.50;53.80;;;;;;4957914;29;20530;-94
2023/02/28 06:50:42;;;;;;;5.03;1.77;;;20.50;53.70;;;;;;4957492;29;20454;-87
2023/02/28 06:53:08;;;;;;;4.90;1.90;;;20.60;53.90;;;;;;4957130;29;20818;-86
2023/02/28 06:55:35;;;;;;;1.50;1.20;;;20.50;53.80;;;;;;4957394;29;20442;-87
2023/02/28 06:58:02;;;;;;;1.93;1.37;;;20.40;53.70;;;;;;4957365;29;20445;-87
2023/02/28 07:00:30;;;;;;;2.33;1.20;;;20.50;53.80;;;;;;4957304;29;20442;-87
2023/02/28 07:02:57;;;;;;;4.60;1.20;;;20.50;53.80;;;;;;4957214;29;20540;-87
2023/02/28 07:05:23;;;;;;;1.87;1.27;;;20.50;53.80;;;;;;4957186;29;20450;-87
2023/02/28 07:07:52;;;;;;;2.50;1.20;;;20.40;53.70;;;;;;4956988;29;20446;-93
2023/02/28 07:10:19;;;;;;;1.67;1.30;;;20.40;53.80;;;;;;4957055;29;20469;-88
2023/02/28 07:12:46;;;;;;;1.23;1.13;;;20.40;53.70;;;;;;4956838;29;20458;-90
2023/02/28 07:15:12;;;;;;;3.90;1.50;;;20.50;53.80;;;;;;4957272;29;20442;-87
2023/02/28 07:17:41;;;;;;;2.80;1.30;;;20.60;53.80;;;;;;4937812;29;20442;-88
2023/02/28 07:20:10;;;;;;;1.47;1.10;;;20.40;53.70;;;;;;4955409;28;20478;-87
2023/02/28 07:22:38;;;;;;;2.37;1.70;;;20.40;53.70;;;;;;4956665;29;20440;-87
2023/02/28 07:25:06;;;;;;;2.60;1.17;;;20.40;53.70;;;;;;4957710;29;20579;-87
2023/02/28 07:27:34;;;;;;;1.87;1.10;;;20.40;53.70;;;;;;4957256;29;20445;-94
2023/02/28 07:30:03;;;;;;;4.33;1.60;;;20.40;53.80;;;;;;4956875;29;20524;-91
2023/02/28 07:32:30;;;;;;;1.57;1.30;;;20.40;53.70;;;;;;4956860;29;20832;-87
2023/02/28 07:34:58;;;;;;;3.73;1.30;;;20.40;53.70;;;;;;4955878;28;20453;-95
2023/02/28 07:37:25;;;;;;;2.03;1.20;;;20.40;53.60;;;;;;4956712;29;20538;-96
2023/02/28 07:39:52;;;;;;;1.80;1.40;;;20.40;53.70;;;;;;4956344;29;20492;-87
2023/02/28 07:42:18;;;;;;;2.23;1.47;;;20.40;53.60;;;;;;4956895;29;20447;-92
2023/02/28 07:44:45;;;;;;;4.03;1.73;;;20.50;53.70;;;;;;4956574;29;20541;-88
2023/02/28 07:47:12;;;;;;;2.63;1.80;;;20.40;53.70;;;;;;4956286;29;20448;-86
2023/02/28 07:49:39;;;;;;;1.50;1.30;;;20.40;53.60;;;;;;4956041;29;20506;-87
2023/02/28 07:52:08;;;;;;;1.60;1.10;;;20.40;53.60;;;;;;4955828;29;20453;-86
2023/02/28 07:54:35;;;;;;;1.70;1.50;;;20.40;53.60;;;;;;4956333;29;20442;-86
2023/02/28 07:57:02;;;;;;;1.50;1.13;;;20.40;54.20;;;;;;4956732;29;20435;-86
2023/02/28 07:59:29;;;;;;;1.80;1.10;;;20.40;53.60;;;;;;4956173;29;20444;-86
2023/02/28 08:01:58;;;;;;;2.10;1.47;;;20.40;53.60;;;;;;4956526;29;20443;-86
2023/02/28 08:04:25;;;;;;;2.73;1.20;;;20.40;53.60;;;;;;4956645;29;20497;-87
2023/02/28 08:06:52;;;;;;;1.73;1.63;;;20.40;53.60;;;;;;4955953;29;20796;-86
2023/02/28 08:09:20;;;;;;;2.10;1.53;;;20.40;53.50;;;;;;4956436;29;20541;-86
2023/02/28 08:11:47;;;;;;;2.23;1.20;;;20.40;54.10;;;;;;4956491;29;20442;-95
2023/02/28 08:14:14;;;;;;;4.67;2.00;;;20.50;53.70;;;;;;4955977;29;20795;-87
2023/02/28 08:16:42;;;;;;;2.70;1.63;;;20.50;53.70;;;;;;4956211;29;20438;-87
2023/02/28 08:19:09;;;;;;;1.80;1.50;;;20.60;53.90;;;;;;4964905;28;20826;-87
2023/02/28 08:21:36;;;;;;;2.07;1.60;;;20.60;53.90;;;;;;4975423;28;20995;-91
2023/02/28 08:24:03;;;;;;;2.00;1.60;;;20.70;53.90;;;;;;4975751;28;20449;-87
2023/02/28 08:26:31;;;;;;;3.53;1.40;;;20.70;53.90;;;;;;4976361;28;20433;-88
2023/02/28 08:28:57;;;;;;;1.87;1.20;;;20.70;54.00;;;;;;4975620;28;20473;-87
2023/02/28 08:31:24;;;;;;;1.57;1.40;;;20.80;54.00;;;;;;4975841;28;20441;-86
2023/02/28 08:33:52;;;;;;;1.60;1.30;;;20.90;54.00;;;;;;4976960;28;20437;-87
2023/02/28 08:36:20;;;;;;;1.80;1.70;;;21.00;54.00;;;;;;4976016;28;20512;-87
2023/02/28 08:38:47;;;;;;;1.70;1.27;;;20.90;53.90;;;;;;4975662;28;20545;-93
2023/02/28 08:41:14;;;;;;;2.57;1.40;;;21.00;53.90;;;;;;4976014;28;20445;-87
2023/02/28 08:43:42;;;;;;;1.27;1.10;;;21.20;54.00;;;;;;4976468;28;20471;-86
2023/02/28 08:46:13;;;;;;;2.03;1.60;;;21.20;53.80;;;;;;4975043;28;20864;-84
2023/02/28 08:48:40;;;;;;;3.10;1.60;;;21.50;53.70;;;;;;4974867;28;20480;-85
2023/02/28 08:51:09;;;;;;;4.13;1.40;;;21.70;53.30;;;;;;4974819;28;20449;-84
2023/02/28 08:53:37;;;;;;;1.70;1.20;;;21.80;53.00;;;;;;4974738;28;20506;-85
2023/02/28 08:56:06;;;;;;;1.40;1.20;;;22.00;52.70;;;;;;4974606;28;20456;-85
2023/02/28 08:58:34;;;;;;;1.50;1.20;;;22.20;52.60;;;;;;4974880;28;20437;-85
2023/02/28 09:01:09;;;;;;;2.50;1.40;;;22.30;52.40;;;;;;4974518;28;20477;-92
2023/02/28 09:03:36;;;;;;;1.43;1.23;;;22.50;52.30;;;;;;4975082;28;20445;-85
2023/02/28 09:06:04;;;;;;;1.53;1.30;;;22.70;52.10;;;;;;4974890;28;20445;-85
2023/02/28 09:08:32;;;;;;;1.73;1.63;;;22.90;52.00;;;;;;4974610;28;20540;-86
2023/02/28 09:10:59;;;;;;;1.43;1.33;;;23.20;51.80;;;;;;4974848;28;20546;-91
2023/02/28 09:13:27;;;;;;;6.50;1.70;;;23.30;51.60;;;;;;4978466;28;20446;-88
2023/02/28 09:15:53;;;;;;;1.90;1.30;;;23.60;51.40;;;;;;4978624;28;20450;-91
2023/02/28 09:18:22;;;;;;;1.43;1.33;;;23.80;51.20;;;;;;4977319;28;20930;-87
2023/02/28 09:20:50;;;;;;;2.43;1.53;;;24.00;51.10;;;;;;4977782;28;20446;-89
2023/02/28 09:23:16;;;;;;;2.17;1.23;;;24.20;51.00;;;;;;4979508;28;20798;-88
2023/02/28 09:25:47;;;;;;;1.60;1.33;;;24.40;50.90;;;;;;4977862;28;20447;-88
2023/02/28 09:28:15;;;;;;;1.87;1.40;;;24.60;50.80;;;;;;4978815;28;20442;-93
2023/02/28 09:30:42;;;;;;;1.40;1.30;;;24.60;50.50;;;;;;4977546;28;20974;-88
2023/02/28 09:33:09;;;;;;;1.50;1.30;;;24.60;50.60;;;;;;4978495;28;20443;-90
2023/02/28 09:35:37;;;;;;;1.70;1.50;;;24.60;50.70;;;;;;4977636;28;20479;-88
2023/02/28 09:38:07;;;;;;;1.60;1.50;;;24.50;50.70;;;;;;4980625;28;20424;-89
2023/02/28 09:40:37;;;;;;;1.50;1.30;;;24.30;51.00;;;;;;4977302;28;20990;-87
2023/02/28 09:43:05;;;;;;;1.23;1.03;;;24.20;51.40;;;;;;4974807;28;20443;-87
2023/02/28 09:45:36;;;;;;;1.60;1.43;;;24.10;51.50;;;;;;4973989;28;20946;-86
2023/02/28 09:48:07;;;;;;;1.30;1.10;;;24.00;51.70;;;;;;4974538;28;20816;-86
2023/02/28 09:50:39;;;;;;;1.33;1.10;;;24.20;51.70;;;;;;4975575;28;20490;-89
2023/02/28 09:53:18;;;;;;;2.03;1.60;;;24.40;51.50;;;;;;4976245;28;20438;-89
2023/02/28 09:55:50;;;;;;;1.47;1.10;;;24.60;51.20;;;;;;4980267;28;20454;-89
2023/02/28 09:58:36;;;;;;;2.00;1.30;;;24.90;51.00;;;;;;4969199;28;20435;-90
2023/02/28 10:01:09;;;;;;;1.67;1.10;;;25.20;50.70;;;;;;4968814;28;20466;-90
2023/02/28 10:03:41;;;;;;;1.93;1.40;;;25.40;50.50;;;;;;4989493;23;20573;-91
2023/02/28 10:06:15;;;;;;;2.00;1.40;;;25.50;50.40;;;;;;5019282;23;20476;-91
2023/02/28 10:08:52;;;;;;;1.20;1.00;;;25.50;50.40;;;;;;5011306;28;20526;-91
2023/02/28 10:11:20;;;;;;;1.30;1.13;;;25.50;50.50;;;;;;5008943;28;20518;-91
2023/02/28 10:14:01;;;;;;;1.20;1.00;;;25.50;50.50;;;;;;5010665;28;20448;-92
2023/02/28 10:16:33;;;;;;;1.40;1.10;;;25.40;50.60;;;;;;5015585;28;20439;-92
2023/02/28 10:19:05;;;;;;;1.20;1.10;;;25.40;50.70;;;;;;5029460;28;20432;-91
2023/02/28 10:21:39;;;;;;;1.93;1.47;;;25.40;50.90;;;;;;5028539;28;20476;-93
2023/02/28 10:24:20;;;;;;;1.50;1.40;;;25.20;51.10;;;;;;5027345;28;20537;-92
2023/02/28 10:26:49;;;;;;;2.03;1.40;;;25.10;51.40;;;;;;5029171;28;20442;-92
2023/02/28 10:29:16;;;;;;;1.67;1.13;;;24.90;51.70;;;;;;5028849;28;20542;-91
2023/02/28 10:31:43;;;;;;;2.33;1.40;;;24.70;51.80;;;;;;5017465;28;20443;-90
2023/02/28 10:34:13;;;;;;;1.40;1.30;;;24.60;52.00;;;;;;5017848;28;20449;-90
2023/02/28 10:36:43;;;;;;;2.37;1.10;;;24.50;52.30;;;;;;5016933;28;20446;-89
2023/02/28 10:39:37;;;;;;;1.30;1.10;;;24.50;52.90;;;;;;5016773;28;20875;-89
2023/02/28 10:42:04;;;;;;;1.50;1.27;;;24.40;52.50;;;;;;5019309;28;20442;-92
2023/02/28 10:44:31;;;;;;;1.50;1.40;;;24.30;52.70;;;;;;5017892;28;20450;-89
2023/02/28 10:46:58;;;;;;;2.10;1.23;;;24.20;52.50;;;;;;5017504;28;20946;-89
2023/02/28 10:49:27;;;;;;;1.33;1.23;;;24.20;52.70;;;;;;5016964;28;20477;-92
2023/02/28 10:51:59;;;;;;;1.40;1.00;;;24.10;52.80;;;;;;5018570;28;20455;-96
2023/02/28 10:54:31;;;;;;;1.97;1.10;;;24.10;52.90;;;;;;5019141;28;20437;-89
2023/02/28 10:57:10;;;;;;;1.30;1.10;;;24.10;52.80;;;;;;5017803;28;20456;-90
2023/02/28 10:59:37;;;;;;;2.40;1.20;;;24.20;53.00;;;;;;5017824;28;20442;-90
2023/02/28 11:02:33;;;;;;;2.47;1.30;;;24.20;52.90;;;;;;5019298;28;20456;-90
2023/02/28 11:05:25;;;;;;;2.80;1.43;;;24.20;52.90;;;;;;5019999;28;20523;-91
2023/02/28 11:07:54;;;;;;;1.53;1.17;;;24.20;52.90;;;;;;4995734;28;20938;-95
2023/02/28 11:10:27;;;;;;;3.90;1.43;;;24.20;52.90;;;;;;4998137;28;20483;-92
2023/02/28 11:12:56;;;;;;;7.70;1.50;;;24.40;53.10;;;;;;4999864;28;20440;-96
2023/02/28 11:15:26;;;;;;;2.67;1.33;;;24.20;53.00;;;;;;5001028;28;20444;-89
2023/02/28 11:17:58;;;;;;;1.33;1.07;;;24.30;53.00;;;;;;5000675;28;20450;-96
2023/02/28 11:20:27;;;;;;;1.43;1.17;;;24.30;53.00;;;;;;5000735;28;20455;-92
2023/02/28 11:22:57;;;;;;;2.37;1.27;;;24.30;52.90;;;;;;5000170;28;20438;-93
2023/02/28 11:25:26;;;;;;;1.20;1.10;;;24.40;53.00;;;;;;4998720;28;20469;-95
2023/02/28 11:27:54;;;;;;;1.40;1.10;;;24.40;53.10;;;;;;4999535;28;20454;-96
2023/02/28 11:30:33;;;;;;;1.50;1.33;;;24.40;53.00;;;;;;4998972;28;20500;-90
2023/02/28 11:33:00;;;;;;;2.07;1.23;;;24.50;52.80;;;;;;4997884;28;20929;-89
2023/02/28 11:35:31;;;;;;;1.47;1.10;;;24.50;52.90;;;;;;4998581;28;20452;-96
2023/02/28 11:37:59;;;;;;;1.40;1.30;;;24.50;52.80;;;;;;4999805;28;20533;-89
2023/02/28 11:40:36;;;;;;;1.30;0.97;;;24.60;53.00;;;;;;4998055;28;20493;-90
2023/02/28 11:43:14;;;;;;;1.77;1.17;;;24.40;52.90;;;;;;4999260;28;20441;-88
2023/02/28 11:45:54;;;;;;;1.33;1.10;;;24.40;53.00;;;;;;5000170;28;20463;-89
2023/02/28 11:48:24;;;;;;;2.57;1.10;;;24.40;53.10;;;;;;4999125;28;20451;-89
2023/02/28 11:51:03;;;;;;;1.37;0.90;;;24.40;53.00;;;;;;5001178;28;20487;-89
2023/02/28 11:53:53;;;;;;;1.67;1.10;;;24.40;53.00;;;;;;4998530;28;20443;-89
2023/02/28 11:56:25;;;;;;;1.43;1.07;;;24.50;53.10;;;;;;5000158;28;20452;-88
2023/02/28 11:59:02;;;;;;;1.80;1.00;;;24.40;53.00;;;;;;5002823;28;20539;-89
2023/02/28 12:01:49;;;;;;;1.70;1.17;;;24.40;53.10;;;;;;5001654;28;20542;-89
2023/02/28 12:04:26;;;;;;;3.93;1.07;;;24.50;53.00;;;;;;5000503;28;21017;-89
2023/02/28 12:07:00;;;;;;;1.50;1.30;;;24.50;53.00;;;;;;5014694;28;20532;-90
2023/02/28 12:09:45;;;;;;;1.77;1.30;;;24.60;53.00;;;;;;5018892;28;20450;-89
2023/02/28 12:12:24;;;;;;;2.33;1.40;;;24.50;53.00;;;;;;5017384;28;20455;-89
2023/02/28 12:15:14;;;;;;;9.90;1.13;;;24.60;53.10;;;;;;5019470;28;20442;-89
2023/02/28 12:17:56;;;;;;;2.27;1.00;;;24.50;52.90;;;;;;4981028;28;20451;-89
2023/02/28 12:20:33;;;;;;;3.77;1.30;;;24.50;52.80;;;;;;5020188;23;20497;-90
2023/02/28 12:23:17;;;;;;;3.17;1.30;;;24.50;53.00;;;;;;4981762;28;20440;-89
2023/02/28 12:26:03;;;;;;;4.07;1.30;;;24.40;53.10;;;;;;4979484;28;20438;-89
2023/02/28 12:28:35;;;;;;;1.30;1.10;;;24.40;53.30;;;;;;4982237;28;20539;-94
2023/02/28 12:31:07;;;;;;;6.27;1.30;;;24.30;53.30;;;;;;4978948;28;20483;-88
2023/02/28 12:33:37;;;;;;;1.10;0.90;;;24.30;53.40;;;;;;4981459;28;20452;-89
2023/02/28 12:36:12;;;;;;;2.03;1.63;;;24.30;53.50;;;;;;4995537;28;20531;-88
2023/02/28 12:38:43;;;;;;;2.70;0.93;;;24.30;53.50;;;;;;5005475;28;20524;-89
2023/02/28 12:41:16;;;;;;;1.87;1.30;;;24.30;53.60;;;;;;5003384;28;20422;-90
2023/02/28 12:43:47;;;;;;;1.27;1.10;;;24.30;53.60;;;;;;5000170;28;20901;-93
2023/02/28 12:46:17;;;;;;;6.57;2.23;;;24.30;53.60;;;;;;5002482;28;20445;-89
2023/02/28 12:48:47;;;;;;;1.53;1.10;;;24.20;53.60;;;;;;4994527;28;20463;-92
2023/02/28 12:51:16;;;;;;;1.63;1.30;;;24.20;53.40;;;;;;4994998;28;20512;-93
2023/02/28 12:53:56;;;;;;;1.60;1.10;;;24.20;53.60;;;;;;4994868;28;20462;-89
2023/02/28 12:56:36;;;;;;;1.30;1.20;;;24.10;53.70;;;;;;4994355;28;20442;-89
2023/02/28 12:59:12;;;;;;;1.33;1.00;;;24.10;53.70;;;;;;4995319;28;20435;-90
2023/02/28 13:02:11;;;;;;;5.97;2.33;;;24.10;53.80;;;;;;4994754;28;20446;-89
2023/02/28 13:04:57;;;;;;;2.10;1.30;;;24.20;53.90;;;;;;4961313;28;20456;-91